createdAt,value
2023-04-29T00:01:04.829Z,48.9
2023-04-29T00:06:23.823Z,49.8
2023-04-29T00:11:42.089Z,49
2023-04-29T00:17:00.562Z,49.3
2023-04-29T00:22:18.896Z,49
2023-04-29T00:27:37.243Z,49.8
2023-04-29T00:32:55.925Z,49
2023-04-29T00:38:14.299Z,49.9
2023-04-29T00:43:32.873Z,49.6
2023-04-29T00:48:50.878Z,49.2
2023-04-29T00:54:09.066Z,49.9
2023-04-29T00:59:27.404Z,50.1
2023-04-29T01:04:45.880Z,49.6
2023-04-29T01:10:04.309Z,49.7
2023-04-29T01:15:22.470Z,50.1
2023-04-29T01:20:40.767Z,49.7
2023-04-29T01:25:59.179Z,49.6
2023-04-29T01:31:17.952Z,49.3
2023-04-29T01:36:36.442Z,50.3
2023-04-29T01:41:54.593Z,49.5
2023-04-29T01:47:12.753Z,49.6
2023-04-29T01:52:31.347Z,49.6
2023-04-29T01:57:49.615Z,49.8
2023-04-29T02:03:08.426Z,49.5
2023-04-29T02:08:26.817Z,50
2023-04-29T02:13:50.518Z,49.8
2023-04-29T02:19:08.487Z,49.2
2023-04-29T02:24:26.801Z,49.6
2023-04-29T02:29:44.776Z,49.5
2023-04-29T02:35:03.114Z,50.2
2023-04-29T02:40:21.292Z,50.1
2023-04-29T02:45:39.867Z,50
2023-04-29T02:50:58.362Z,49.7
2023-04-29T02:56:16.982Z,49.8
2023-04-29T03:01:35.558Z,50.1
2023-04-29T03:06:53.727Z,49
2023-04-29T03:12:11.966Z,50
2023-04-29T03:17:30.065Z,49.2
2023-04-29T03:22:48.211Z,49.3
2023-04-29T03:28:06.205Z,48.9
2023-04-29T03:33:24.401Z,49.3
2023-04-29T03:38:42.722Z,49.3
2023-04-29T03:44:01.340Z,49.8
2023-04-29T03:49:19.480Z,50
2023-04-29T03:54:37.639Z,50.1
2023-04-29T03:59:56.098Z,49.2
2023-04-29T04:05:14.906Z,49.7
2023-04-29T04:10:33.049Z,49.1
2023-04-29T04:15:51.521Z,50.2
2023-04-29T04:21:09.766Z,50.1
2023-04-29T04:26:28.118Z,50.6
2023-04-29T04:31:48.071Z,50.5
2023-04-29T04:37:06.345Z,50.9
2023-04-29T04:42:24.918Z,50.3
2023-04-29T04:47:43.713Z,50.3
2023-04-29T04:53:01.884Z,50.1
2023-04-29T04:58:20.242Z,50.9
2023-04-29T05:03:39.418Z,51
2023-04-29T05:08:57.732Z,51.2
2023-04-29T05:14:16.251Z,50.6
2023-04-29T05:19:34.940Z,50.8
2023-04-29T05:24:53.046Z,50
2023-04-29T05:30:11.252Z,50.7
2023-04-29T05:35:29.806Z,50.6
2023-04-29T05:40:48.143Z,49.9
2023-04-29T05:46:06.267Z,50.8
2023-04-29T05:51:24.451Z,50
2023-04-29T05:56:42.746Z,45.3
2023-04-29T06:02:01.124Z,45.9
2023-04-29T06:07:20.851Z,46.2
2023-04-29T06:12:39.424Z,46.5
2023-04-29T06:17:57.718Z,47.3
2023-04-29T06:23:16.384Z,47.3
2023-04-29T06:28:34.964Z,47.6
2023-04-29T06:33:53.295Z,47.8
2023-04-29T06:39:11.866Z,47.9
2023-04-29T06:44:30.306Z,48
2023-04-29T06:49:48.651Z,47.4
2023-04-29T06:55:07.205Z,48.4
2023-04-29T07:00:25.455Z,48.4
2023-04-29T07:05:44.264Z,42.6
2023-04-29T07:11:02.417Z,43.9
2023-04-29T07:16:20.720Z,44.6
2023-04-29T07:21:39.346Z,44.4
2023-04-29T07:26:58.002Z,45.1
2023-04-29T07:32:16.518Z,45
2023-04-29T07:37:35.042Z,45
2023-04-29T07:42:53.470Z,46.5
2023-04-29T07:48:11.942Z,45.8
2023-04-29T07:53:30.518Z,46.7
2023-04-29T07:58:48.513Z,46.9
2023-04-29T08:04:07.569Z,46.8
2023-04-29T08:09:26.408Z,46
2023-04-29T08:14:44.631Z,46.7
2023-04-29T08:20:02.911Z,46.8
2023-04-29T08:25:21.326Z,46
2023-04-29T08:30:39.770Z,46.2
2023-04-29T08:35:58.136Z,46
2023-04-29T08:41:16.072Z,47.1
2023-04-29T08:46:34.642Z,47
2023-04-29T08:51:52.796Z,46.6
2023-04-29T08:57:11.416Z,46.7
2023-04-29T09:02:30.367Z,46.8
2023-04-29T09:07:48.901Z,45.9
2023-04-29T09:13:07.286Z,40.5
2023-04-29T09:18:28.338Z,40
2023-04-29T09:23:46.676Z,37.6
2023-04-29T09:29:05.191Z,38.7
2023-04-29T09:34:23.619Z,41.3
2023-04-29T09:39:41.774Z,42
2023-04-29T09:45:00.112Z,42.3
2023-04-29T09:50:18.601Z,43.3
2023-04-29T09:55:36.712Z,44.2
2023-04-29T10:00:55.050Z,43.4
2023-04-29T10:06:13.232Z,43.2
2023-04-29T10:11:31.761Z,43.9
2023-04-29T10:16:49.680Z,43.4
2023-04-29T10:22:08.148Z,44.1
2023-04-29T10:27:26.860Z,43.2
2023-04-29T10:32:53.284Z,41.7
2023-04-29T10:38:11.338Z,41.9
2023-04-29T10:43:30.075Z,41.5
2023-04-29T10:48:48.381Z,41.6
2023-04-29T10:54:06.861Z,41.8
2023-04-29T10:59:25.350Z,43
2023-04-29T11:04:43.532Z,42.5
2023-04-29T11:10:01.710Z,42.7
2023-04-29T11:15:20.066Z,43.1
2023-04-29T11:20:38.598Z,43.8
2023-04-29T11:25:57.044Z,43.8
2023-04-29T11:31:18.622Z,44.1
2023-04-29T11:36:36.881Z,43.5
2023-04-29T11:41:39.825Z,44.3
2023-04-29T11:46:58.161Z,44.3
2023-04-29T11:52:16.678Z,43.8
2023-04-29T11:57:35.217Z,43.9
2023-04-29T12:02:54.414Z,44.4
2023-04-29T12:08:13.084Z,43.6
2023-04-29T12:13:31.734Z,43.8
2023-04-29T12:18:49.930Z,43.7
2023-04-29T12:24:07.886Z,44.3
2023-04-29T12:29:26.088Z,41.8
2023-04-29T12:34:44.525Z,42.9
2023-04-29T12:40:02.605Z,43.1
2023-04-29T12:45:20.769Z,43.8
2023-04-29T12:50:39.044Z,43.2
2023-04-29T12:55:57.524Z,44.5
2023-04-29T13:01:19.352Z,44.2
2023-04-29T13:06:38.261Z,44.2
2023-04-29T13:11:56.641Z,45.1
2023-04-29T13:17:14.980Z,45.2
2023-04-29T13:22:33.704Z,45.3
2023-04-29T13:27:52.039Z,45.2
2023-04-29T13:33:14.483Z,44.5
2023-04-29T13:38:32.523Z,44.6
2023-04-29T13:43:55.726Z,44.5
2023-04-29T13:50:47.016Z,45.2
2023-04-29T14:07:13.468Z,45.4
2023-04-29T14:12:31.927Z,44.8
2023-04-29T14:17:50.301Z,45.7
2023-04-29T14:23:08.742Z,45.7
2023-04-29T14:28:26.920Z,45.7
2023-04-29T14:33:45.121Z,45.7
2023-04-29T14:39:03.510Z,45.8
2023-04-29T14:44:21.933Z,44.9
2023-04-29T14:49:40.080Z,44.9
2023-04-29T14:54:58.079Z,45.5
2023-04-29T15:00:16.520Z,45.2
2023-04-29T15:05:35.730Z,45.4
2023-04-29T15:10:54.114Z,44.8
2023-04-29T15:16:12.334Z,45.4
2023-04-29T15:21:30.840Z,44.7
2023-04-29T15:26:49.517Z,45.5
2023-04-29T15:32:07.922Z,44.7
2023-04-29T15:37:26.484Z,45.6
2023-04-29T15:42:45.112Z,45.8
2023-04-29T15:47:48.896Z,45.3
2023-04-29T15:53:07.450Z,46.1
2023-04-29T15:58:25.626Z,45.7
2023-04-29T16:03:44.284Z,46.2
2023-04-29T16:09:02.639Z,45.3
2023-04-29T16:14:05.391Z,45.5
2023-04-29T16:19:23.750Z,46.5
2023-04-29T16:24:42.313Z,47
2023-04-29T16:30:01.851Z,45.7
2023-04-29T16:35:20.708Z,46.5
2023-04-29T16:40:38.878Z,46.7
2023-04-29T16:45:57.644Z,46.8
2023-04-29T16:51:16.055Z,45.9
2023-04-29T16:56:34.625Z,46
2023-04-29T17:01:53.190Z,46.4
2023-04-29T17:07:12.757Z,46.6
2023-04-29T17:12:31.281Z,47.1
2023-04-29T17:17:49.505Z,47.1
2023-04-29T17:23:08.924Z,46.2
2023-04-29T17:28:27.277Z,47
2023-04-29T17:33:45.415Z,46.7
2023-04-29T17:39:03.873Z,47
2023-04-29T17:44:26.845Z,46.2
2023-04-29T17:49:29.782Z,46.7
2023-04-29T17:54:48.044Z,46.6
2023-04-29T18:00:06.038Z,46.9
2023-04-29T18:05:24.158Z,46.8
2023-04-29T18:10:42.285Z,45
2023-04-29T18:16:00.663Z,46.8
2023-04-29T18:21:20.000Z,47.5
2023-04-29T18:26:38.403Z,47.7
2023-04-29T18:31:57.344Z,46.9
2023-04-29T18:37:00.237Z,47.4
2023-04-29T18:42:19.030Z,47.4
2023-04-29T18:47:37.422Z,46.8
2023-04-29T18:52:55.664Z,46.8
2023-04-29T18:58:13.852Z,47.2
2023-04-29T19:03:32.020Z,47
2023-04-29T19:08:52.064Z,47.6
2023-04-29T19:14:10.290Z,47.2
2023-04-29T19:19:28.640Z,46.6
2023-04-29T19:24:48.096Z,47.6
2023-04-29T19:30:06.770Z,47.3
2023-04-29T19:35:25.405Z,46.8
2023-04-29T19:40:43.768Z,47.5
2023-04-29T19:46:02.769Z,46.7
2023-04-29T19:51:21.088Z,47.5
2023-04-29T19:56:39.716Z,47.5
2023-04-29T20:01:58.066Z,47.1
2023-04-29T20:07:15.991Z,46.8
2023-04-29T20:12:34.341Z,46.7
2023-04-29T20:17:52.731Z,47.5
2023-04-29T20:23:10.939Z,47.4
2023-04-29T20:28:29.657Z,47.5
2023-04-29T20:33:51.062Z,47.3
2023-04-29T20:39:09.074Z,47
2023-04-29T20:44:27.639Z,47.7
2023-04-29T20:49:45.992Z,46.5
2023-04-29T20:54:48.506Z,47.3
2023-04-29T21:00:06.953Z,46
2023-04-29T21:05:10.342Z,46.6
2023-04-29T21:10:28.588Z,46.9
2023-04-29T21:15:47.058Z,47.6
2023-04-29T21:21:05.557Z,47.7
2023-04-29T21:26:25.031Z,47.2
2023-04-29T21:31:43.367Z,46.9
2023-04-29T21:37:01.765Z,47.6
2023-04-29T21:42:20.079Z,47.7
2023-04-29T21:47:38.556Z,47.5
2023-04-29T21:52:56.736Z,47.5
2023-04-29T21:58:14.652Z,47.1
2023-04-29T22:03:33.349Z,48
2023-04-29T22:08:51.733Z,48
2023-04-29T22:14:10.191Z,47.2
2023-04-29T22:19:28.621Z,48.1
2023-04-29T22:24:47.525Z,47.3
2023-04-29T22:30:05.681Z,47.2
2023-04-29T22:35:24.095Z,47.9
2023-04-29T22:40:42.432Z,48.3
2023-04-29T22:46:01.248Z,48.2
2023-04-29T22:51:19.420Z,47.5
2023-04-29T22:56:38.034Z,48.2
2023-04-29T23:01:56.472Z,48.2
2023-04-29T23:07:14.763Z,48.7
2023-04-29T23:12:32.945Z,48
2023-04-29T23:17:51.259Z,48.1
2023-04-29T23:23:09.511Z,47.9
2023-04-29T23:28:27.669Z,48.4
2023-04-29T23:33:45.839Z,48.7
2023-04-29T23:39:03.840Z,48.6
2023-04-29T23:44:22.018Z,48.3
2023-04-29T23:49:40.591Z,48.6
2023-04-29T23:54:58.872Z,48.2
